createdAt,value
2019-02-07T00:01:04.174Z,37.88
2019-02-07T00:03:32.091Z,37.25
2019-02-07T00:06:00.504Z,38.30
2019-02-07T00:08:28.594Z,37.80
2019-02-07T00:10:56.867Z,38.53
2019-02-07T00:13:24.791Z,38.38
2019-02-07T00:15:52.720Z,37.75
2019-02-07T00:18:20.639Z,38.88
2019-02-07T00:20:48.567Z,37.65
2019-02-07T00:23:16.966Z,37.33
2019-02-07T00:25:44.895Z,37.88
2019-02-07T00:28:13.058Z,36.85
2019-02-07T00:30:40.975Z,37.78
2019-02-07T00:33:08.908Z,39.55
2019-02-07T00:35:36.822Z,38.13
2019-02-07T00:38:04.757Z,37.35
2019-02-07T00:40:32.678Z,36.48
2019-02-07T00:43:00.610Z,37.73
2019-02-07T00:45:28.535Z,36.75
2019-02-07T00:47:56.458Z,36.55
2019-02-07T00:50:24.611Z,34.58
2019-02-07T00:52:52.540Z,36.55
2019-02-07T00:55:20.970Z,36.88
2019-02-07T00:57:48.905Z,36.88
2019-02-07T01:00:18.363Z,37.33
2019-02-07T01:02:46.279Z,35.65
2019-02-07T01:05:14.758Z,36.08
2019-02-07T01:07:42.750Z,38.63
2019-02-07T01:10:11.942Z,36.73
2019-02-07T01:12:40.163Z,36.00
2019-02-07T01:15:09.595Z,35.83
2019-02-07T01:17:37.515Z,34.98
2019-02-07T01:20:06.711Z,36.98
2019-02-07T01:22:34.631Z,36.42
2019-02-07T01:25:02.624Z,35.40
2019-02-07T01:27:30.923Z,35.20
2019-02-07T01:29:58.847Z,34.88
2019-02-07T01:32:27.021Z,36.38
2019-02-07T01:34:54.938Z,35.88
2019-02-07T01:37:23.091Z,36.70
2019-02-07T01:39:51.018Z,34.80
2019-02-07T01:42:18.942Z,35.52
2019-02-07T01:44:47.137Z,35.50
2019-02-07T01:47:15.062Z,35.88
2019-02-07T01:49:42.985Z,34.80
2019-02-07T01:52:10.911Z,35.48
2019-02-07T01:54:38.834Z,36.00
2019-02-07T01:57:06.759Z,36.15
2019-02-07T01:59:34.688Z,36.10
2019-02-07T02:02:03.010Z,36.25
2019-02-07T02:04:30.983Z,36.05
2019-02-07T02:06:59.187Z,34.90
2019-02-07T02:09:27.115Z,36.08
2019-02-07T02:11:55.035Z,35.08
2019-02-07T02:14:23.643Z,34.08
2019-02-07T02:16:51.563Z,35.90
2019-02-07T02:19:19.727Z,33.25
2019-02-07T02:21:47.647Z,35.90
2019-02-07T02:24:15.571Z,36.45
2019-02-07T02:26:43.499Z,35.80
2019-02-07T02:29:11.419Z,33.55
2019-02-07T02:31:39.347Z,35.40
2019-02-07T02:34:07.264Z,34.43
2019-02-07T02:36:35.235Z,34.55
2019-02-07T02:39:04.296Z,34.15
2019-02-07T02:41:33.588Z,34.33
2019-02-07T02:44:01.520Z,31.42
2019-02-07T02:46:29.447Z,32.17
2019-02-07T02:48:57.378Z,33.38
2019-02-07T02:51:25.684Z,34.08
2019-02-07T02:53:55.261Z,33.13
2019-02-07T02:56:23.175Z,33.38
2019-02-07T02:58:52.160Z,32.17
2019-02-07T03:01:24.663Z,32.58
2019-02-07T03:03:54.220Z,33.42
2019-02-07T03:06:24.079Z,31.20
2019-02-07T03:08:53.635Z,33.18
2019-02-07T03:11:39.794Z,31.65
2019-02-07T03:14:12.109Z,32.05
2019-02-07T03:16:44.752Z,31.90
2019-02-07T03:19:32.359Z,32.33
2019-02-07T03:22:11.942Z,31.37
2019-02-07T03:24:41.498Z,31.80
2019-02-07T03:27:13.503Z,31.25
2019-02-07T03:29:43.055Z,31.55
2019-02-07T03:32:21.438Z,32.40
2019-02-07T03:34:53.742Z,31.40
2019-02-07T03:37:29.791Z,33.02
2019-02-07T03:40:16.091Z,33.13
2019-02-07T03:43:02.322Z,32.08
2019-02-07T03:45:48.180Z,33.48
2019-02-07T03:48:17.742Z,34.20
2019-02-07T03:50:47.305Z,31.97
2019-02-07T03:53:33.255Z,33.18
2019-02-07T03:56:05.491Z,32.88
2019-02-07T03:58:35.297Z,32.98
2019-02-07T04:01:10.764Z,33.33
2019-02-07T04:03:43.760Z,33.48
2019-02-07T04:06:13.340Z,34.73
2019-02-07T04:08:42.909Z,33.78
2019-02-07T04:11:29.193Z,32.35
2019-02-07T04:14:04.771Z,32.83
2019-02-07T04:16:38.363Z,32.98
2019-02-07T04:19:24.270Z,32.38
2019-02-07T04:22:02.915Z,32.38
2019-02-07T04:24:32.473Z,32.65
2019-02-07T04:27:02.039Z,32.28
2019-02-07T04:29:46.653Z,32.95
2019-02-07T04:32:21.879Z,33.70
2019-02-07T04:35:06.691Z,32.45
2019-02-07T04:37:36.261Z,35.03
2019-02-07T04:40:08.028Z,34.98
2019-02-07T04:42:40.325Z,33.15
2019-02-07T04:45:12.866Z,35.58
2019-02-07T04:47:58.839Z,34.95
2019-02-07T04:50:45.076Z,34.40
2019-02-07T04:53:14.660Z,33.65
2019-02-07T04:55:59.255Z,34.27
2019-02-07T04:58:31.725Z,34.53
2019-02-07T05:01:07.343Z,34.65
2019-02-07T05:03:48.835Z,33.67
2019-02-07T05:06:27.311Z,32.75
2019-02-07T05:09:14.891Z,35.43
2019-02-07T05:11:50.435Z,34.83
2019-02-07T05:14:22.637Z,33.50
2019-02-07T05:17:08.786Z,35.60
2019-02-07T05:19:54.483Z,32.83
2019-02-07T05:22:24.036Z,33.08
2019-02-07T05:25:05.626Z,33.38
2019-02-07T05:27:38.591Z,33.83
2019-02-07T05:30:12.364Z,34.05
2019-02-07T05:32:50.605Z,34.15
2019-02-07T05:35:23.347Z,32.85
2019-02-07T05:37:55.864Z,33.30
2019-02-07T05:40:25.435Z,33.60
2019-02-07T05:43:11.320Z,33.42
2019-02-07T05:45:40.891Z,34.00
2019-02-07T05:48:10.451Z,34.08
2019-02-07T05:50:40.014Z,35.33
2019-02-07T05:53:24.952Z,33.00
2019-02-07T05:55:54.508Z,33.90
2019-02-07T05:58:40.433Z,34.78
2019-02-07T06:01:13.903Z,34.15
2019-02-07T06:03:50.143Z,34.75
2019-02-07T06:06:25.334Z,34.20
2019-02-07T06:08:58.056Z,35.15
2019-02-07T06:11:30.315Z,35.68
2019-02-07T06:13:59.875Z,36.25
2019-02-07T06:16:46.178Z,36.90
2019-02-07T06:19:19.024Z,36.90
2019-02-07T06:21:51.260Z,37.78
2019-02-07T06:24:29.575Z,37.67
2019-02-07T06:27:14.138Z,36.85
2019-02-07T06:29:49.848Z,39.23
2019-02-07T06:32:22.130Z,38.53
2019-02-07T06:35:06.971Z,36.45
2019-02-07T06:37:37.016Z,36.75
2019-02-07T06:40:20.451Z,35.68
2019-02-07T06:42:50.007Z,37.63
2019-02-07T06:45:19.787Z,36.88
2019-02-07T06:47:52.277Z,37.38
2019-02-07T06:50:22.062Z,37.70
2019-02-07T06:52:51.623Z,36.55
2019-02-07T06:55:26.862Z,36.93
2019-02-07T06:57:59.351Z,38.78
2019-02-07T07:00:45.451Z,38.92
2019-02-07T07:03:17.947Z,37.60
2019-02-07T07:06:05.485Z,37.88
2019-02-07T07:08:38.248Z,36.20
2019-02-07T07:11:11.176Z,37.63
2019-02-07T07:13:46.452Z,39.58
2019-02-07T07:16:32.460Z,40.15
2019-02-07T07:19:04.963Z,39.05
2019-02-07T07:21:40.463Z,40.20
2019-02-07T07:24:10.019Z,41.50
2019-02-07T07:26:56.184Z,39.70
2019-02-07T07:29:25.751Z,41.00
2019-02-07T07:32:11.882Z,40.35
2019-02-07T07:34:53.620Z,40.08
2019-02-07T07:37:26.126Z,40.23
2019-02-07T07:40:12.369Z,40.78
2019-02-07T07:42:58.279Z,38.20
2019-02-07T07:45:33.627Z,38.08
2019-02-07T07:48:03.196Z,40.67
2019-02-07T07:50:32.751Z,41.18
2019-02-07T07:53:02.635Z,42.27
2019-02-07T07:55:35.507Z,40.75
2019-02-07T07:58:05.303Z,42.13
2019-02-07T08:00:51.164Z,42.83
2019-02-07T08:03:20.727Z,42.33
2019-02-07T08:05:56.687Z,41.02
2019-02-07T08:08:32.427Z,43.20
2019-02-07T08:11:08.152Z,39.38
2019-02-07T08:13:54.209Z,40.17
2019-02-07T08:16:32.922Z,40.25
2019-02-07T08:19:18.759Z,40.55
2019-02-07T08:21:51.235Z,40.35
2019-02-07T08:24:26.920Z,39.63
2019-02-07T08:26:59.372Z,40.35
2019-02-07T08:29:28.955Z,39.92
2019-02-07T08:32:01.258Z,39.30
2019-02-07T08:34:36.626Z,42.40
2019-02-07T08:37:12.296Z,41.33
2019-02-07T08:39:48.083Z,40.95
2019-02-07T08:42:29.801Z,42.60
2019-02-07T08:45:02.326Z,43.42
2019-02-07T08:47:41.247Z,44.03
2019-02-07T08:50:27.027Z,42.48
2019-02-07T08:52:56.779Z,42.15
2019-02-07T08:55:43.141Z,43.58
2019-02-07T08:58:24.603Z,43.40
2019-02-07T09:00:54.183Z,44.40
2019-02-07T09:03:23.759Z,43.87
2019-02-07T09:05:53.571Z,42.75
2019-02-07T09:08:23.147Z,45.63
2019-02-07T09:10:52.939Z,43.92
2019-02-07T09:13:39.296Z,45.17
2019-02-07T09:16:18.389Z,46.02
2019-02-07T09:19:00.291Z,47.33
2019-02-07T09:21:29.854Z,46.33
2019-02-07T09:23:59.427Z,46.30
2019-02-07T09:26:45.584Z,48.13
2019-02-07T09:29:31.769Z,49.60
2019-02-07T09:32:13.898Z,50.88
2019-02-07T09:34:43.759Z,46.73
2019-02-07T09:37:29.730Z,49.80
2019-02-07T09:40:11.691Z,45.95
2019-02-07T09:42:44.356Z,47.48
2019-02-07T09:45:24.656Z,48.73
2019-02-07T09:47:54.219Z,47.83
2019-02-07T09:50:23.791Z,45.98
2019-02-07T09:52:59.452Z,47.17
2019-02-07T09:55:34.959Z,48.73
2019-02-07T09:58:07.704Z,50.45
2019-02-07T10:00:40.554Z,48.90
2019-02-07T10:03:10.375Z,46.50
2019-02-07T10:05:58.210Z,45.33
2019-02-07T10:08:28.028Z,47.83
2019-02-07T10:11:06.855Z,48.00
2019-02-07T10:13:39.251Z,51.58
2019-02-07T10:16:17.588Z,51.90
2019-02-07T10:19:03.418Z,52.38
2019-02-07T10:21:39.041Z,48.25
2019-02-07T10:24:17.699Z,51.40
2019-02-07T10:26:57.492Z,48.25
2019-02-07T10:29:27.059Z,51.85
2019-02-07T10:31:59.660Z,48.55
2019-02-07T10:34:38.211Z,49.77
2019-02-07T10:37:17.252Z,48.25
2019-02-07T10:40:02.234Z,52.65
2019-02-07T10:42:37.627Z,56.18
2019-02-07T10:45:25.049Z,52.20
2019-02-07T10:47:54.613Z,53.87
2019-02-07T10:50:36.519Z,52.43
2019-02-07T10:53:14.928Z,51.63
2019-02-07T10:56:01.479Z,51.68
2019-02-07T10:58:34.054Z,51.75
2019-02-07T11:01:03.859Z,51.42
2019-02-07T11:03:39.674Z,53.28
2019-02-07T11:06:18.591Z,52.40
2019-02-07T11:08:54.107Z,56.85
2019-02-07T11:11:23.912Z,56.80
2019-02-07T11:13:56.247Z,54.00
2019-02-07T11:16:32.187Z,50.28
2019-02-07T11:19:21.475Z,49.80
2019-02-07T11:21:52.143Z,53.10
2019-02-07T11:24:28.847Z,49.30
2019-02-07T11:27:01.379Z,51.05
2019-02-07T11:29:39.976Z,52.10
2019-02-07T11:32:12.455Z,53.73
2019-02-07T11:34:54.375Z,54.67
2019-02-07T11:37:35.896Z,53.08
2019-02-07T11:40:23.167Z,54.77
2019-02-07T11:43:04.911Z,56.98
2019-02-07T11:45:34.490Z,54.58
2019-02-07T11:48:04.287Z,56.15
2019-02-07T11:50:50.842Z,53.68
2019-02-07T11:53:29.287Z,55.65
2019-02-07T11:55:58.875Z,50.98
2019-02-07T11:58:31.651Z,53.15
2019-02-07T12:01:17.803Z,53.87
2019-02-07T12:03:47.379Z,55.43
2019-02-07T12:06:30.098Z,52.15
2019-02-07T12:08:59.643Z,54.42
2019-02-07T12:11:37.956Z,54.70
2019-02-07T12:14:13.122Z,55.67
2019-02-07T12:16:42.691Z,55.85
2019-02-07T12:19:18.047Z,56.37
2019-02-07T12:21:43.547Z,54.53
2019-02-07T12:24:28.546Z,56.58
2019-02-07T12:27:01.132Z,55.20
2019-02-07T12:29:42.935Z,55.58
2019-02-07T12:32:15.503Z,56.05
2019-02-07T12:35:02.059Z,55.73
2019-02-07T12:37:31.699Z,57.55
2019-02-07T12:40:01.264Z,56.75
2019-02-07T12:42:30.895Z,57.80
2019-02-07T12:45:03.283Z,59.53
2019-02-07T12:47:33.089Z,58.78
2019-02-07T12:50:20.731Z,58.65
2019-02-07T12:53:06.676Z,59.53
2019-02-07T12:55:52.331Z,58.70
2019-02-07T12:58:17.267Z,61.92
2019-02-07T13:01:03.600Z,61.05
2019-02-07T13:03:39.479Z,61.33
2019-02-07T13:06:18.831Z,60.88
2019-02-07T13:08:54.184Z,58.00
2019-02-07T13:11:32.782Z,57.30
2019-02-07T13:14:17.627Z,57.70
2019-02-07T13:16:56.458Z,57.80
2019-02-07T13:19:26.059Z,63.08
2019-02-07T13:21:58.687Z,59.65
2019-02-07T13:24:37.415Z,61.45
2019-02-07T13:27:07.164Z,61.08
2019-02-07T13:29:36.818Z,61.70
2019-02-07T13:32:09.397Z,61.55
2019-02-07T13:34:44.967Z,59.27
2019-02-07T13:37:14.534Z,58.78
2019-02-07T13:39:50.452Z,60.20
2019-02-07T13:42:36.563Z,62.73
2019-02-07T13:45:24.060Z,59.85
2019-02-07T13:47:53.858Z,59.83
2019-02-07T13:50:32.277Z,57.90
2019-02-07T13:53:03.627Z,57.83
2019-02-07T13:55:42.426Z,58.40
2019-02-07T13:58:20.824Z,58.52
2019-02-07T14:00:53.376Z,59.48
2019-02-07T14:03:39.723Z,58.35
2019-02-07T14:06:09.311Z,55.65
2019-02-07T14:08:39.112Z,55.92
2019-02-07T14:11:26.986Z,57.53
2019-02-07T14:14:08.359Z,55.85
2019-02-07T14:16:37.932Z,56.53
2019-02-07T14:19:26.063Z,56.08
2019-02-07T14:22:04.637Z,54.88
2019-02-07T14:24:51.951Z,53.08
2019-02-07T14:27:24.289Z,54.93
2019-02-07T14:30:09.175Z,56.28
2019-02-07T14:32:55.448Z,55.40
2019-02-07T14:35:35.207Z,54.25
2019-02-07T14:38:23.162Z,52.88
2019-02-07T14:40:58.907Z,55.60
2019-02-07T14:43:31.528Z,53.58
2019-02-07T14:46:04.323Z,53.28
2019-02-07T14:48:32.487Z,54.53
2019-02-07T14:51:00.424Z,53.28
2019-02-07T14:53:28.580Z,51.45
2019-02-07T14:55:56.516Z,52.58
2019-02-07T14:58:24.451Z,52.48
2019-02-07T15:00:52.389Z,52.73
2019-02-07T15:03:20.539Z,51.75
2019-02-07T15:05:48.484Z,52.48
2019-02-07T15:08:16.429Z,51.60
2019-02-07T15:10:44.594Z,52.17
2019-02-07T15:13:12.532Z,53.00
2019-02-07T15:15:40.691Z,53.68
2019-02-07T15:18:08.634Z,53.35
2019-02-07T15:20:36.646Z,54.45
2019-02-07T15:23:04.796Z,54.15
2019-02-07T15:25:32.987Z,58.15
2019-02-07T15:28:01.191Z,58.92
2019-02-07T15:30:29.199Z,55.58
2019-02-07T15:32:57.124Z,55.70
2019-02-07T15:35:32.875Z,56.23
2019-02-07T15:38:00.799Z,51.35
2019-02-07T15:40:28.737Z,52.75
2019-02-07T15:42:56.923Z,51.73
2019-02-07T15:45:25.084Z,53.00
2019-02-07T15:47:53.023Z,51.02
2019-02-07T15:50:21.977Z,52.80
2019-02-07T15:52:52.162Z,50.43
2019-02-07T15:55:20.355Z,48.75
2019-02-07T15:57:48.331Z,49.83
2019-02-07T16:00:21.855Z,51.23
2019-02-07T16:02:51.101Z,49.90
2019-02-07T16:05:19.287Z,48.02
2019-02-07T16:07:47.839Z,46.70
2019-02-07T16:10:17.034Z,47.10
2019-02-07T16:12:44.963Z,47.48
2019-02-07T16:15:12.976Z,47.20
2019-02-07T16:17:41.146Z,50.55
2019-02-07T16:20:10.936Z,49.03
2019-02-07T16:22:38.931Z,51.18
2019-02-07T16:25:08.500Z,48.08
2019-02-07T16:27:36.423Z,48.78
2019-02-07T16:30:06.301Z,51.68
2019-02-07T16:32:34.395Z,50.80
2019-02-07T16:35:02.339Z,50.25
2019-02-07T16:37:30.538Z,51.58
2019-02-07T16:39:59.144Z,50.60
2019-02-07T16:42:27.321Z,47.70
2019-02-07T16:44:55.248Z,54.00
2019-02-07T16:47:23.181Z,56.60
2019-02-07T16:49:51.124Z,54.90
2019-02-07T16:52:19.043Z,57.70
2019-02-07T16:54:47.007Z,57.55
2019-02-07T16:57:15.255Z,56.45
2019-02-07T16:59:43.183Z,54.85
2019-02-07T17:02:11.115Z,52.30
2019-02-07T17:04:39.039Z,59.33
2019-02-07T17:07:06.975Z,57.08
2019-02-07T17:09:35.768Z,59.35
2019-02-07T17:12:04.775Z,64.17
2019-02-07T17:14:32.704Z,63.55
2019-02-07T17:17:00.655Z,60.03
2019-02-07T17:19:28.574Z,63.13
2019-02-07T17:21:56.506Z,61.98
2019-02-07T17:24:24.438Z,71.42
2019-02-07T17:26:52.368Z,73.00
2019-02-07T17:29:20.675Z,66.85
2019-02-07T17:31:48.595Z,70.90
2019-02-07T17:34:16.529Z,70.28
2019-02-07T17:36:44.449Z,74.42
2019-02-07T17:39:12.613Z,76.03
2019-02-07T17:41:40.881Z,80.75
2019-02-07T17:44:08.799Z,70.78
2019-02-07T17:46:37.351Z,87.15
2019-02-07T17:49:05.500Z,78.17
2019-02-07T17:51:34.113Z,70.40
2019-02-07T17:54:02.022Z,71.77
2019-02-07T17:56:30.123Z,77.70
2019-02-07T17:58:58.053Z,70.78
2019-02-07T18:01:26.034Z,77.08
2019-02-07T18:03:54.664Z,75.20
2019-02-07T18:06:22.874Z,79.55
2019-02-07T18:08:50.790Z,99.47
2019-02-07T18:11:19.131Z,82.92
2019-02-07T18:13:47.305Z,84.15
2019-02-07T18:16:15.463Z,86.05
2019-02-07T18:18:43.394Z,88.80
2019-02-07T18:21:12.663Z,83.75
2019-02-07T18:23:40.593Z,87.17
2019-02-07T18:26:08.752Z,72.70
2019-02-07T18:28:36.691Z,70.28
2019-02-07T18:31:04.851Z,59.85
2019-02-07T18:33:32.784Z,55.83
2019-02-07T18:36:00.715Z,53.95
2019-02-07T18:38:28.823Z,58.02
2019-02-07T18:40:56.755Z,66.37
2019-02-07T18:43:25.051Z,64.82
2019-02-07T18:45:52.980Z,64.30
2019-02-07T18:48:21.139Z,61.85
2019-02-07T18:50:50.564Z,60.95
2019-02-07T18:53:18.723Z,59.73
2019-02-07T18:55:46.655Z,62.20
2019-02-07T18:58:14.579Z,66.87
2019-02-07T19:00:42.508Z,50.60
2019-02-07T19:03:10.427Z,46.55
2019-02-07T19:05:39.427Z,45.25
2019-02-07T19:08:07.355Z,52.38
2019-02-07T19:10:35.307Z,52.95
2019-02-07T19:13:03.287Z,42.10
2019-02-07T19:15:34.151Z,42.65
2019-02-07T19:18:02.084Z,39.05
2019-02-07T19:20:30.316Z,43.35
2019-02-07T19:22:58.251Z,42.13
2019-02-07T19:25:27.155Z,39.15
2019-02-07T19:27:55.566Z,45.10
2019-02-07T19:30:27.037Z,48.92
2019-02-07T19:32:55.413Z,50.15
2019-02-07T19:35:23.336Z,48.35
2019-02-07T19:37:52.404Z,50.08
2019-02-07T19:40:21.759Z,52.38
2019-02-07T19:42:49.756Z,50.15
2019-02-07T19:45:19.791Z,49.23
2019-02-07T19:47:48.240Z,50.03
2019-02-07T19:50:21.090Z,50.58
2019-02-07T19:52:49.013Z,48.17
2019-02-07T19:55:18.252Z,43.25
2019-02-07T19:57:46.243Z,45.23
2019-02-07T20:00:18.827Z,45.12
2019-02-07T20:02:47.060Z,45.28
2019-02-07T20:05:15.235Z,45.78
2019-02-07T20:07:43.455Z,49.53
2019-02-07T20:10:13.012Z,43.73
2019-02-07T20:12:42.496Z,51.10
2019-02-07T20:15:15.567Z,41.13
2019-02-07T20:17:43.802Z,42.30
2019-02-07T20:20:12.999Z,47.38
2019-02-07T20:22:40.939Z,47.48
2019-02-07T20:25:10.203Z,58.02
2019-02-07T20:27:38.135Z,61.05
2019-02-07T20:30:14.143Z,63.55
2019-02-07T20:32:42.148Z,60.80
2019-02-07T20:35:10.311Z,58.50
2019-02-07T20:37:38.312Z,60.85
2019-02-07T20:40:07.983Z,55.65
2019-02-07T20:42:36.221Z,56.10
2019-02-07T20:45:05.813Z,51.73
2019-02-07T20:47:35.049Z,48.60
2019-02-07T20:50:04.047Z,50.38
2019-02-07T20:52:33.615Z,52.65
2019-02-07T20:55:01.605Z,50.98
2019-02-07T20:57:29.603Z,49.85
2019-02-07T20:59:57.534Z,46.70
2019-02-07T21:02:25.683Z,52.03
2019-02-07T21:04:53.683Z,52.08
2019-02-07T21:07:23.669Z,51.37
2019-02-07T21:09:51.594Z,53.83
2019-02-07T21:12:19.550Z,58.75
2019-02-07T21:14:47.707Z,55.90
2019-02-07T21:17:15.636Z,53.55
2019-02-07T21:19:43.596Z,64.80
2019-02-07T21:22:11.519Z,51.80
2019-02-07T21:24:40.911Z,48.42
2019-02-07T21:27:09.096Z,49.80
2019-02-07T21:29:37.255Z,52.35
2019-02-07T21:32:05.223Z,46.77
2019-02-07T21:34:33.216Z,48.98
2019-02-07T21:37:01.211Z,48.17
2019-02-07T21:39:29.501Z,49.33
2019-02-07T21:41:57.478Z,42.47
2019-02-07T21:44:25.418Z,48.45
2019-02-07T21:46:53.485Z,50.30
2019-02-07T21:49:21.416Z,51.23
2019-02-07T21:51:49.414Z,47.00
2019-02-07T21:54:17.575Z,45.10
2019-02-07T21:56:45.571Z,43.23
2019-02-07T21:59:13.487Z,41.90
2019-02-07T22:01:41.863Z,42.85
2019-02-07T22:04:09.778Z,42.40
2019-02-07T22:06:37.892Z,42.95
2019-02-07T22:09:07.507Z,44.40
2019-02-07T22:11:36.228Z,42.25
2019-02-07T22:14:04.160Z,47.43
2019-02-07T22:16:32.093Z,50.73
2019-02-07T22:19:00.019Z,47.48
2019-02-07T22:21:28.183Z,45.23
2019-02-07T22:23:56.351Z,53.25
2019-02-07T22:26:24.276Z,47.38
2019-02-07T22:28:52.208Z,52.23
2019-02-07T22:31:20.133Z,50.23
2019-02-07T22:33:48.139Z,51.77
2019-02-07T22:36:16.295Z,47.03
2019-02-07T22:38:44.225Z,40.98
2019-02-07T22:41:12.372Z,43.58
2019-02-07T22:43:40.520Z,41.15
2019-02-07T22:46:08.524Z,41.68
2019-02-07T22:48:36.445Z,43.75
2019-02-07T22:51:04.370Z,42.17
2019-02-07T22:53:32.470Z,38.25
2019-02-07T22:56:00.390Z,40.10
2019-02-07T22:58:28.547Z,40.45
2019-02-07T23:00:58.135Z,42.70
2019-02-07T23:03:26.351Z,36.38
2019-02-07T23:05:55.627Z,42.33
2019-02-07T23:08:23.730Z,40.65
2019-02-07T23:10:51.663Z,42.08
2019-02-07T23:13:19.824Z,44.83
2019-02-07T23:15:48.009Z,40.20
2019-02-07T23:18:15.927Z,42.43
2019-02-07T23:20:43.851Z,39.63
2019-02-07T23:23:11.791Z,38.35
2019-02-07T23:25:40.200Z,38.60
2019-02-07T23:28:08.118Z,37.80
2019-02-07T23:30:36.052Z,43.35
2019-02-07T23:33:04.647Z,44.95
2019-02-07T23:35:32.586Z,43.40
2019-02-07T23:38:00.511Z,52.83
2019-02-07T23:40:28.463Z,53.55
2019-02-07T23:42:56.991Z,35.15
2019-02-07T23:45:24.922Z,35.70
2019-02-07T23:47:52.839Z,36.38
2019-02-07T23:50:20.783Z,36.20
2019-02-07T23:52:48.698Z,34.63
2019-02-07T23:55:16.631Z,35.80
2019-02-07T23:57:44.798Z,36.55
